createdAt,value
2022-10-05T00:03:22.727Z,13.80
2022-10-05T00:08:30.170Z,13.79
2022-10-05T00:13:31.703Z,13.73
2022-10-05T00:18:33.199Z,13.70
2022-10-05T00:23:34.739Z,13.65
2022-10-05T00:28:36.322Z,13.62
2022-10-05T00:33:37.891Z,13.60
2022-10-05T00:38:40.348Z,13.56
2022-10-05T00:43:53.963Z,13.54
2022-10-05T00:49:13.701Z,13.50
2022-10-05T00:54:41.636Z,13.46
2022-10-05T01:00:02.793Z,13.43
2022-10-05T01:05:15.812Z,13.40
2022-10-05T01:10:23.314Z,13.37
2022-10-05T01:15:46.791Z,13.34
2022-10-05T01:21:00.520Z,13.30
2022-10-05T01:26:30.300Z,13.27
2022-10-05T01:31:34.934Z,13.24
2022-10-05T01:36:48.831Z,13.22
2022-10-05T01:42:03.753Z,13.20
2022-10-05T01:47:12.227Z,13.17
2022-10-05T01:52:16.683Z,13.10
2022-10-05T01:57:26.525Z,13.07
2022-10-05T02:02:31.620Z,13.05
2022-10-05T02:07:42.135Z,13.05
2022-10-05T02:12:46.548Z,13.04
2022-10-05T02:17:52.740Z,13.01
2022-10-05T02:23:00.499Z,13.02
2022-10-05T02:28:10.034Z,12.99
2022-10-05T02:33:22.278Z,12.97
2022-10-05T02:38:48.968Z,12.94
2022-10-05T02:43:59.635Z,12.93
2022-10-05T02:49:37.649Z,12.88
2022-10-05T02:55:05.808Z,12.87
2022-10-05T03:00:17.607Z,12.83
2022-10-05T03:05:30.759Z,12.78
2022-10-05T03:10:42.701Z,12.76
2022-10-05T03:15:48.910Z,12.72
2022-10-05T03:21:03.234Z,12.68
2022-10-05T03:26:27.007Z,12.62
2022-10-05T03:31:46.579Z,12.56
2022-10-05T03:37:27.969Z,12.50
2022-10-05T03:42:51.262Z,12.43
2022-10-05T03:48:05.459Z,12.38
2022-10-05T03:53:14.528Z,12.33
2022-10-05T03:58:30.150Z,12.28
2022-10-05T04:03:39.694Z,12.25
2022-10-05T04:08:47.835Z,12.17
2022-10-05T04:14:14.306Z,12.14
2022-10-05T04:19:24.536Z,12.12
2022-10-05T04:24:35.060Z,12.08
2022-10-05T04:29:48.230Z,12.04
2022-10-05T04:35:07.028Z,12.00
2022-10-05T04:40:15.221Z,11.92
2022-10-05T04:45:38.364Z,11.87
2022-10-05T04:50:46.125Z,11.84
2022-10-05T04:55:58.309Z,11.79
2022-10-05T05:01:30.937Z,11.77
2022-10-05T05:06:40.107Z,11.73
2022-10-05T05:12:03.914Z,11.73
2022-10-05T05:17:27.819Z,11.66
2022-10-05T05:22:50.734Z,11.64
2022-10-05T05:28:16.783Z,11.60
2022-10-05T05:33:37.553Z,11.57
2022-10-05T05:38:39.919Z,11.54
2022-10-05T05:43:58.165Z,11.53
2022-10-05T05:49:07.852Z,11.53
2022-10-05T05:54:26.055Z,11.53
2022-10-05T05:59:38.381Z,11.54
2022-10-05T06:04:52.488Z,11.58
2022-10-05T06:10:26.403Z,11.60
2022-10-05T06:15:44.863Z,11.64
2022-10-05T06:21:00.797Z,11.66
2022-10-05T06:26:10.932Z,11.70
2022-10-05T06:31:29.672Z,11.74
2022-10-05T06:36:50.350Z,11.80
2022-10-05T06:42:08.317Z,11.86
2022-10-05T06:48:01.626Z,11.92
2022-10-05T06:54:03.901Z,11.99
2022-10-05T06:59:15.408Z,12.07
2022-10-05T07:04:38.879Z,12.16
2022-10-05T07:10:15.381Z,12.21
2022-10-05T07:15:36.079Z,12.30
2022-10-05T07:20:59.234Z,12.40
2022-10-05T07:26:18.865Z,12.47
2022-10-05T07:31:44.185Z,12.55
2022-10-05T07:37:18.092Z,12.64
2022-10-05T07:42:48.846Z,12.75
2022-10-05T07:47:59.491Z,12.85
2022-10-05T07:53:10.849Z,12.97
2022-10-05T07:58:34.588Z,13.09
2022-10-05T08:03:44.484Z,13.19
2022-10-05T08:09:04.464Z,13.29
2022-10-05T08:14:20.376Z,13.43
2022-10-05T08:19:30.094Z,13.55
2022-10-05T08:24:43.769Z,13.66
2022-10-05T08:29:51.476Z,13.78
2022-10-05T08:35:34.480Z,13.94
2022-10-05T08:41:14.781Z,14.08
2022-10-05T08:46:31.218Z,14.22
2022-10-05T08:51:56.759Z,14.32
2022-10-05T08:57:27.398Z,14.43
2022-10-05T09:02:47.912Z,14.56
2022-10-05T09:08:26.803Z,14.71
2022-10-05T09:14:03.842Z,14.80
2022-10-05T09:19:36.237Z,14.94
2022-10-05T09:25:03.499Z,15.11
2022-10-05T09:30:27.058Z,15.31
2022-10-05T09:36:16.707Z,15.52
2022-10-05T09:41:37.417Z,15.72
2022-10-05T09:46:50.934Z,15.92
2022-10-05T09:52:06.753Z,16.12
2022-10-05T09:57:17.432Z,16.26
2022-10-05T10:02:34.162Z,16.42
2022-10-05T10:07:56.172Z,16.56
2022-10-05T10:13:52.041Z,16.72
2022-10-05T10:19:15.575Z,16.88
2022-10-05T10:24:48.662Z,17.04
2022-10-05T10:30:27.780Z,17.17
2022-10-05T10:35:33.443Z,17.31
2022-10-05T10:41:12.695Z,17.44
2022-10-05T10:46:31.969Z,17.56
2022-10-05T10:52:01.889Z,17.68
2022-10-05T10:57:06.612Z,17.80
2022-10-05T11:02:20.273Z,17.92
2022-10-05T11:07:45.283Z,18.08
2022-10-05T11:13:11.826Z,18.24
2022-10-05T11:18:20.368Z,18.39
2022-10-05T11:23:43.275Z,18.57
2022-10-05T11:29:12.756Z,18.71
2022-10-05T11:34:37.986Z,18.86
2022-10-05T11:40:11.318Z,19.02
2022-10-05T11:45:36.833Z,19.16
2022-10-05T11:51:03.626Z,19.31
2022-10-05T12:01:45.703Z,19.46
2022-10-05T12:07:01.078Z,19.59
2022-10-05T12:12:27.027Z,19.68
2022-10-05T12:17:44.673Z,19.76
2022-10-05T12:22:55.048Z,19.84
2022-10-05T12:28:12.958Z,19.88
2022-10-05T12:33:21.238Z,19.96
2022-10-05T12:38:28.660Z,19.99
2022-10-05T12:44:06.251Z,20.05
2022-10-05T12:49:07.785Z,20.09
2022-10-05T12:54:21.801Z,20.17
2022-10-05T12:59:37.524Z,20.22
2022-10-05T13:05:02.919Z,20.29
2022-10-05T13:10:33.420Z,20.35
2022-10-05T13:15:56.129Z,20.39
2022-10-05T13:21:20.505Z,20.42
2022-10-05T13:26:31.685Z,20.48
2022-10-05T13:31:42.940Z,20.52
2022-10-05T13:36:59.882Z,20.54
2022-10-05T13:42:12.518Z,20.60
2022-10-05T13:47:35.697Z,20.63
2022-10-05T13:52:40.072Z,20.62
2022-10-05T13:57:57.857Z,20.64
2022-10-05T14:03:00.767Z,20.65
2022-10-05T14:08:02.290Z,20.68
2022-10-05T14:13:22.547Z,20.73
2022-10-05T14:18:27.411Z,20.75
2022-10-05T14:23:29.850Z,20.76
2022-10-05T14:28:39.027Z,20.82
2022-10-05T14:33:41.148Z,20.85
2022-10-05T14:38:55.430Z,20.89
2022-10-05T14:43:59.899Z,20.93
2022-10-05T14:49:33.150Z,20.97
2022-10-05T14:55:00.865Z,20.95
2022-10-05T15:00:18.623Z,20.97
2022-10-05T15:05:44.560Z,20.96
2022-10-05T15:10:56.549Z,20.99
2022-10-05T15:16:05.428Z,20.98
2022-10-05T15:21:35.798Z,20.95
2022-10-05T15:26:51.432Z,20.92
2022-10-05T15:31:59.069Z,20.92
2022-10-05T15:37:22.594Z,20.88
2022-10-05T15:42:39.022Z,20.85
2022-10-05T15:48:00.014Z,20.80
2022-10-05T15:53:20.607Z,20.75
2022-10-05T15:58:31.370Z,20.69
2022-10-05T16:03:51.579Z,20.61
2022-10-05T16:09:34.660Z,20.51
2022-10-05T16:15:04.264Z,20.44
2022-10-05T16:20:21.012Z,20.37
2022-10-05T16:25:34.652Z,20.29
2022-10-05T16:30:55.162Z,20.21
2022-10-05T16:36:22.769Z,20.11
2022-10-05T16:41:40.452Z,20.03
2022-10-05T16:46:54.689Z,19.94
2022-10-05T16:52:01.800Z,19.85
2022-10-05T16:57:32.675Z,19.75
2022-10-05T17:02:59.212Z,19.66
2022-10-05T17:08:08.527Z,19.58
2022-10-05T17:13:19.632Z,19.48
2022-10-05T17:18:29.957Z,19.41
2022-10-05T17:23:55.185Z,19.34
2022-10-05T17:29:16.554Z,19.22
2022-10-05T17:34:18.062Z,19.15
2022-10-05T17:39:43.883Z,19.10
2022-10-05T17:44:45.402Z,19.03
2022-10-05T17:50:18.405Z,18.96
2022-10-05T17:55:37.579Z,18.89
2022-10-05T18:00:55.979Z,18.81
2022-10-05T18:06:20.705Z,18.71
2022-10-05T18:11:28.202Z,18.68
2022-10-05T18:17:02.575Z,18.62
2022-10-05T18:22:16.456Z,18.56
2022-10-05T18:28:00.762Z,18.50
2022-10-05T18:33:29.874Z,18.43
2022-10-05T18:38:55.908Z,18.39
2022-10-05T18:44:19.464Z,18.30
2022-10-05T18:49:29.037Z,18.26
2022-10-05T18:55:01.394Z,18.22
2022-10-05T19:00:15.175Z,18.19
2022-10-05T19:05:48.790Z,18.11
2022-10-05T19:10:55.602Z,18.07
2022-10-05T19:16:09.508Z,18.02
2022-10-05T19:21:27.297Z,17.95
2022-10-05T19:26:48.548Z,17.87
2022-10-05T19:32:08.976Z,17.81
2022-10-05T19:37:22.145Z,17.77
2022-10-05T19:42:52.603Z,17.69
2022-10-05T19:48:19.273Z,17.61
2022-10-05T19:53:30.231Z,17.55
2022-10-05T19:58:39.841Z,17.51
2022-10-05T20:03:47.849Z,17.47
2022-10-05T20:08:52.344Z,17.43
2022-10-05T20:13:53.957Z,17.38
2022-10-05T20:19:14.039Z,17.33
2022-10-05T20:24:21.398Z,17.29
2022-10-05T20:29:22.984Z,17.25
2022-10-05T20:34:24.706Z,17.19
2022-10-05T20:39:26.260Z,17.16
2022-10-05T20:44:27.847Z,17.14
2022-10-05T20:49:36.174Z,17.14
2022-10-05T20:54:39.055Z,17.10
2022-10-05T20:59:40.669Z,17.05
2022-10-05T21:04:47.354Z,17.01
2022-10-05T21:09:50.944Z,16.95
2022-10-05T21:14:52.700Z,16.93
2022-10-05T21:19:54.253Z,16.88
2022-10-05T21:24:55.805Z,16.83
2022-10-05T21:29:57.316Z,16.78
2022-10-05T21:34:58.909Z,16.74
2022-10-05T21:40:00.716Z,16.69
2022-10-05T21:45:02.313Z,16.68
2022-10-05T21:50:05.214Z,16.63
2022-10-05T21:55:07.549Z,16.59
2022-10-05T22:00:11.302Z,16.55
2022-10-05T22:05:13.222Z,16.52
2022-10-05T22:10:14.980Z,16.47
2022-10-05T22:15:16.705Z,16.43
2022-10-05T22:20:20.293Z,16.39
2022-10-05T22:25:22.548Z,16.36
2022-10-05T22:30:24.094Z,16.32
2022-10-05T22:35:25.648Z,16.29
2022-10-05T22:40:27.191Z,16.24
2022-10-05T22:45:32.453Z,16.20
2022-10-05T22:50:34.503Z,16.16
2022-10-05T22:55:36.135Z,16.12
2022-10-05T23:00:57.050Z,16.07
2022-10-05T23:06:03.464Z,16.07
2022-10-05T23:11:11.897Z,16.07
2022-10-05T23:16:15.930Z,16.10
2022-10-05T23:21:19.743Z,16.13
2022-10-05T23:26:23.278Z,16.17
2022-10-05T23:31:27.173Z,16.21
2022-10-05T23:36:32.395Z,16.25
2022-10-05T23:41:34.445Z,16.28
2022-10-05T23:46:36.008Z,16.31
2022-10-05T23:51:37.562Z,16.34
2022-10-05T23:56:39.120Z,16.35
